createdAt,value
2023-01-08T00:03:16.966Z,99471.03
2023-01-08T00:08:18.659Z,99457.47
2023-01-08T00:13:20.275Z,99456.97
2023-01-08T00:18:22.166Z,99455.53
2023-01-08T00:23:24.048Z,99453.97
2023-01-08T00:28:26.315Z,99455.63
2023-01-08T00:33:27.911Z,99447.78
2023-01-08T00:38:30.059Z,99434.66
2023-01-08T00:43:31.735Z,99429.56
2023-01-08T00:48:39.376Z,99419.97
2023-01-08T00:53:41.069Z,99414.94
2023-01-08T00:58:42.704Z,99409.75
2023-01-08T01:03:45.011Z,99393.78
2023-01-08T01:08:46.804Z,99391.84
2023-01-08T01:13:49.219Z,99376.25
2023-01-08T01:18:52.342Z,99363.66
2023-01-08T01:23:56.404Z,99373.66
2023-01-08T01:28:59.056Z,99389.53
2023-01-08T01:34:00.801Z,99397.34
2023-01-08T01:39:02.724Z,99407.63
2023-01-08T01:44:36.629Z,99395.31
2023-01-08T01:49:41.363Z,99387.63
2023-01-08T01:54:43.070Z,99381.69
2023-01-08T01:59:47.364Z,99384.81
2023-01-08T02:04:49.283Z,99380.50
2023-01-08T02:10:10.202Z,99362.28
2023-01-08T02:15:34.852Z,99353.50
2023-01-08T02:20:41.537Z,99345.41
2023-01-08T02:25:43.193Z,99346.06
2023-01-08T02:30:46.106Z,99326.91
2023-01-08T02:36:11.028Z,99323.56
2023-01-08T02:41:14.265Z,99336.19
2023-01-08T02:46:23.898Z,99335.34
2023-01-08T02:51:28.723Z,99342.22
2023-01-08T02:56:34.489Z,99339.19
2023-01-08T03:01:37.078Z,99340.50
2023-01-08T03:06:38.890Z,99333.75
2023-01-08T03:12:02.172Z,99334.13
2023-01-08T03:17:18.947Z,99333.94
2023-01-08T03:22:22.522Z,99324.28
2023-01-08T03:27:29.405Z,99331.59
2023-01-08T03:32:31.628Z,99320.91
2023-01-08T03:37:37.329Z,99309.78
2023-01-08T03:42:39.076Z,99304.13
2023-01-08T03:47:42.806Z,99298.41
2023-01-08T03:52:44.533Z,99286.84
2023-01-08T03:57:46.142Z,99282.28
2023-01-08T04:02:47.830Z,99278.59
2023-01-08T04:07:49.593Z,99258.50
2023-01-08T04:12:51.209Z,99262.97
2023-01-08T04:17:53.812Z,99255.53
2023-01-08T04:22:55.448Z,99250.16
2023-01-08T04:27:57.125Z,99256.22
2023-01-08T04:32:58.727Z,99269.03
2023-01-08T04:38:00.443Z,99267.47
2023-01-08T04:43:02.092Z,99267.50
2023-01-08T04:48:04.058Z,99269.47
2023-01-08T04:53:05.729Z,99262.41
2023-01-08T04:58:07.395Z,99253.75
2023-01-08T05:03:09.123Z,99259.91
2023-01-08T05:08:10.738Z,99263.72
2023-01-08T05:13:12.367Z,99248.59
2023-01-08T05:18:13.972Z,99244.13
2023-01-08T05:23:15.807Z,99245.34
2023-01-08T05:28:17.483Z,99246.03
2023-01-08T05:33:19.701Z,99250.59
2023-01-08T05:38:21.378Z,99235.81
2023-01-08T05:43:23.105Z,99232.97
2023-01-08T05:48:24.814Z,99226.03
2023-01-08T05:53:26.403Z,99212.41
2023-01-08T05:58:28.533Z,99215.00
2023-01-08T06:03:30.224Z,99218.84
2023-01-08T06:08:32.741Z,99199.59
2023-01-08T06:13:35.406Z,99201.03
2023-01-08T06:18:37.130Z,99217.72
2023-01-08T06:23:39.407Z,99206.38
2023-01-08T06:28:40.998Z,99206.66
2023-01-08T06:33:42.664Z,99213.69
2023-01-08T06:38:44.328Z,99212.50
2023-01-08T06:43:47.377Z,99218.25
2023-01-08T06:48:49.018Z,99233.97
2023-01-08T06:53:51.605Z,99233.81
2023-01-08T06:58:53.271Z,99231.72
2023-01-08T07:03:56.109Z,99230.13
2023-01-08T07:08:57.758Z,99233.59
2023-01-08T07:13:59.372Z,99248.91
2023-01-08T07:19:01.014Z,99256.91
2023-01-08T07:24:02.641Z,99248.94
2023-01-08T07:29:04.293Z,99249.91
2023-01-08T07:34:06.283Z,99243.69
2023-01-08T07:39:07.921Z,99249.75
2023-01-08T07:44:10.456Z,99235.56
2023-01-08T07:49:12.607Z,99224.19
2023-01-08T07:54:14.295Z,99222.16
2023-01-08T07:59:16.027Z,99222.31
2023-01-08T08:04:18.037Z,99214.63
2023-01-08T08:09:19.664Z,99228.34
2023-01-08T08:14:21.403Z,99217.91
2023-01-08T08:19:23.071Z,99213.66
2023-01-08T08:24:24.637Z,99209.97
2023-01-08T08:29:26.312Z,99215.41
2023-01-08T08:34:28.013Z,99210.56
2023-01-08T08:39:29.596Z,99199.16
2023-01-08T08:44:31.253Z,99176.03
2023-01-08T08:49:33.615Z,99183.16
2023-01-08T08:54:35.350Z,99185.28
2023-01-08T08:59:37.153Z,99178.31
2023-01-08T09:04:38.807Z,99174.66
2023-01-08T09:09:40.759Z,99169.75
2023-01-08T09:14:42.473Z,99168.72
2023-01-08T09:19:44.260Z,99161.94
2023-01-08T09:24:46.329Z,99149.44
2023-01-08T09:29:47.987Z,99140.25
2023-01-08T09:34:49.699Z,99137.41
2023-01-08T09:40:01.765Z,99138.97
2023-01-08T09:45:05.681Z,99137.09
2023-01-08T09:50:13.303Z,99140.34
2023-01-08T09:55:16.621Z,99132.91
2023-01-08T10:00:24.518Z,99127.50
2023-01-08T10:05:28.470Z,99136.13
2023-01-08T10:10:31.837Z,99136.59
2023-01-08T10:15:33.573Z,99124.91
2023-01-08T10:20:35.930Z,99126.22
2023-01-08T10:26:01.308Z,99117.94
2023-01-08T10:31:11.055Z,99112.88
2023-01-08T10:36:17.000Z,99106.31
2023-01-08T10:41:19.384Z,99102.47
2023-01-08T10:46:36.921Z,99095.28
2023-01-08T10:51:50.209Z,99083.06
2023-01-08T10:56:52.099Z,99069.56
2023-01-08T11:01:58.207Z,99066.16
2023-01-08T11:07:05.920Z,99061.97
2023-01-08T11:12:37.396Z,99055.34
2023-01-08T11:17:39.119Z,99073.53
2023-01-08T11:22:40.757Z,99062.50
2023-01-08T11:27:44.712Z,99072.44
2023-01-08T11:32:57.854Z,99073.16
2023-01-08T11:38:03.234Z,99067.31
2023-01-08T11:43:32.266Z,99050.13
2023-01-08T11:48:33.882Z,99044.66
2023-01-08T11:53:50.634Z,99040.78
2023-01-08T11:59:11.875Z,99021.66
2023-01-08T12:04:40.179Z,99013.22
2023-01-08T12:09:53.930Z,99009.91
2023-01-08T12:15:16.467Z,99006.22
2023-01-08T12:20:32.192Z,99010.66
2023-01-08T12:25:40.433Z,98995.19
2023-01-08T12:31:00.665Z,98987.03
2023-01-08T12:36:09.124Z,98994.22
2023-01-08T12:41:19.213Z,98997.47
2023-01-08T12:46:24.515Z,98993.00
2023-01-08T12:51:39.195Z,98998.66
2023-01-08T12:56:52.671Z,98974.16
2023-01-08T13:02:15.637Z,98975.59
2023-01-08T13:07:28.156Z,98976.19
2023-01-08T13:12:37.881Z,98975.84
2023-01-08T13:17:39.483Z,98969.78
2023-01-08T13:22:41.808Z,98956.19
2023-01-08T13:27:45.461Z,98956.53
2023-01-08T13:32:48.519Z,98958.56
2023-01-08T13:38:10.007Z,98958.88
2023-01-08T13:43:15.843Z,98955.03
2023-01-08T13:48:23.570Z,98953.25
2023-01-08T13:53:25.460Z,98943.66
2023-01-08T13:58:31.852Z,98938.91
2023-01-08T14:03:37.336Z,98934.53
2023-01-08T14:09:00.132Z,98928.88
2023-01-08T14:14:02.099Z,98925.66
2023-01-08T14:19:05.143Z,98918.84
2023-01-08T14:24:07.764Z,98934.84
2023-01-08T14:29:15.995Z,98930.50
2023-01-08T14:34:19.221Z,98940.13
2023-01-08T14:39:32.320Z,98931.72
2023-01-08T14:44:39.226Z,98927.38
2023-01-08T14:49:44.763Z,98925.53
2023-01-08T14:54:53.404Z,98921.66
2023-01-08T15:00:02.066Z,98918.69
2023-01-08T15:05:20.365Z,98910.53
2023-01-08T15:10:39.042Z,98926.50
2023-01-08T15:15:54.354Z,98926.91
2023-01-08T15:20:57.091Z,98924.56
2023-01-08T15:25:58.895Z,98931.09
2023-01-08T15:31:00.864Z,98935.16
2023-01-08T15:36:02.631Z,98943.47
2023-01-08T15:41:04.418Z,98954.31
2023-01-08T15:46:11.284Z,98943.38
2023-01-08T15:51:13.058Z,98946.66
2023-01-08T15:56:15.055Z,98942.13
2023-01-08T16:01:18.017Z,98941.34
2023-01-08T16:06:46.291Z,98946.44
2023-01-08T16:11:51.218Z,98933.03
2023-01-08T16:16:52.968Z,98916.66
2023-01-08T16:21:54.583Z,98912.69
2023-01-08T16:26:56.256Z,98912.81
2023-01-08T16:31:58.386Z,98923.66
2023-01-08T16:37:02.863Z,98928.69
2023-01-08T16:42:09.281Z,98937.16
2023-01-08T16:47:11.225Z,98926.56
2023-01-08T16:52:13.398Z,98921.75
2023-01-08T16:57:15.246Z,98910.31
2023-01-08T17:02:17.297Z,98906.72
2023-01-08T17:07:18.924Z,98928.28
2023-01-08T17:12:22.567Z,98919.59
2023-01-08T17:17:24.542Z,98922.94
2023-01-08T17:22:26.698Z,98913.19
2023-01-08T17:27:28.636Z,98902.34
2023-01-08T17:32:30.558Z,98901.44
2023-01-08T17:37:35.050Z,98892.78
2023-01-08T17:42:36.765Z,98875.50
2023-01-08T17:47:39.136Z,98862.31
2023-01-08T17:52:41.186Z,98845.91
2023-01-08T17:57:45.014Z,98847.53
2023-01-08T18:02:47.468Z,98844.09
2023-01-08T18:07:49.422Z,98830.28
2023-01-08T18:12:51.269Z,98823.72
2023-01-08T18:17:55.275Z,98813.09
2023-01-08T18:22:57.216Z,98809.38
2023-01-08T18:27:59.182Z,98799.41
2023-01-08T18:33:00.965Z,98811.06
2023-01-08T18:38:02.694Z,98812.06
2023-01-08T18:43:04.407Z,98819.50
2023-01-08T18:48:09.376Z,98816.88
2023-01-08T18:53:11.289Z,98808.59
2023-01-08T18:58:13.371Z,98799.28
2023-01-08T19:03:15.053Z,98782.50
2023-01-08T19:08:17.231Z,98780.94
2023-01-08T19:13:19.224Z,98791.47
2023-01-08T19:18:27.158Z,98790.66
2023-01-08T19:23:28.880Z,98788.50
2023-01-08T19:28:31.090Z,98783.81
2023-01-08T19:33:34.062Z,98787.97
2023-01-08T19:38:35.856Z,98782.31
2023-01-08T19:43:43.587Z,98789.81
2023-01-08T19:48:45.636Z,98779.19
2023-01-08T19:53:47.616Z,98778.59
2023-01-08T19:58:53.397Z,98766.97
2023-01-08T20:03:56.810Z,98759.88
2023-01-08T20:09:00.113Z,98744.81
2023-01-08T20:14:05.330Z,98744.75
2023-01-08T20:19:07.075Z,98735.56
2023-01-08T20:24:14.574Z,98728.59
2023-01-08T20:29:17.170Z,98723.97
2023-01-08T20:34:19.009Z,98705.88
2023-01-08T20:39:20.681Z,98714.00
2023-01-08T20:44:29.103Z,98698.16
2023-01-08T20:49:31.629Z,98691.47
2023-01-08T20:54:33.616Z,98696.66
2023-01-08T20:59:36.259Z,98692.91
2023-01-08T21:04:41.775Z,98709.72
2023-01-08T21:09:44.329Z,98699.56
2023-01-08T21:14:46.015Z,98688.91
2023-01-08T21:19:47.706Z,98693.00
2023-01-08T21:24:49.607Z,98688.84
2023-01-08T21:29:54.587Z,98680.97
2023-01-08T21:34:56.551Z,98662.94
2023-01-08T21:39:58.304Z,98657.06
2023-01-08T21:45:18.906Z,98642.03
2023-01-08T21:50:20.803Z,98616.91
2023-01-08T21:55:22.535Z,98611.34
2023-01-08T22:00:25.083Z,98610.00
2023-01-08T22:05:27.931Z,98613.44
2023-01-08T22:10:29.582Z,98603.09
2023-01-08T22:15:31.229Z,98597.13
2023-01-08T22:20:33.181Z,98595.84
2023-01-08T22:25:39.539Z,98589.75
2023-01-08T22:30:41.257Z,98579.91
2023-01-08T22:35:42.930Z,98583.44
2023-01-08T22:40:44.563Z,98575.34
2023-01-08T22:45:57.684Z,98559.00
2023-01-08T22:51:03.076Z,98551.66
2023-01-08T22:56:12.393Z,98548.84
2023-01-08T23:01:22.369Z,98549.81
2023-01-08T23:06:26.838Z,98547.44
2023-01-08T23:11:28.894Z,98531.66
2023-01-08T23:16:30.691Z,98528.88
2023-01-08T23:21:32.403Z,98518.34
2023-01-08T23:26:34.022Z,98518.56
2023-01-08T23:31:37.801Z,98523.16
2023-01-08T23:36:40.744Z,98514.66
2023-01-08T23:41:42.458Z,98505.03
2023-01-08T23:46:44.229Z,98498.06
2023-01-08T23:51:46.005Z,98490.25
2023-01-08T23:56:48.496Z,98486.69
